Historyczne dane pomiarowe

Dodano dane terminowe – wersja testowa.

Dane z okresu 1951-2019

Wersja bazy: 1.34 [2019-03-16, lista zmian], aktualizacja planowana na 2019-04-15

Dane meteo z obszaru Polski uzyskane na podstawie danych udostępnionych przez Instytut Meteorologii i Gospodarki Wodnej – Państwowy Instytut Badawczy.

 

Wybierz Datę:    

       

TemperaturaWilgotnośćWiatrCiśnienieOpadyŚniegCzas trwania zjawisk
 Stacja t tx tn tng RH VA  wxwx mslp ppp RRR   cm mm wxwxwxwxwxwxwx
1994-08-14 15.7 18.7 12.3 11.6 69.3- 6.3 2.3---- 0.0------------
1994-08-13 16.9 22.6 15.1 13.6 87.8- 7.3 2.0---- 4.5------------
1994-08-12 16.8 20.1 15.6 15.2 86.5- 5.3 1.0---- 0.0------------
1994-08-11 17.1 24.1 11.3 9.6 82.3- 6.0 1.7---- 0.6------------
1994-08-10 19.8 25.1 16.4 15.7 73.8- 4.7 1.7---- 0.0------------
1994-08-09 19.0 24.6 16.9 15.7 86.5- 7.7 2.0---- 25.3------------
1994-08-08 19.8 25.9 17.4 12.6 83.8- 7.7 2.0---- 0.0------------
1994-08-07 23.8 31.0 17.4 14.1 65.8- 2.3 0.7---- 1.4------------
1994-08-06 25.0 33.0 15.9 12.6 54.3- 0.3 0.7---- 0.0------------
1994-08-05 24.0 32.0 15.4 15.2 68.8- 1.7 1.0---- 0.0------------
1994-08-04 21.8 30.0 16.9 14.6 84.0- 5.0 1.7---- 1.4------------
1994-08-03 23.8 30.3 16.4 14.3 69.0- 2.0 2.3---- 0.0------------
1994-08-02 26.4 32.3 19.4 15.7 55.8- 5.0 1.3---- 0.0------------
1994-08-01 26.8 34.8 17.0 14.1 60.0- 1.0 1.3---- 0.0------------
1994-07-31 25.8 35.4 16.4 14.1 59.8- 1.7 0.7---- 0.0------------
1994-07-30 25.8 35.0 15.9 13.6 61.8- 1.3 0.7---- 0.0------------
1994-07-29 27.2 35.0 15.9 12.6 54.3- 1.0 0.7---- 0.0------------
1994-07-28 26.4 34.0 14.9 12.6 56.8- 0.7 0.3---- 0.0------------
1994-07-27 26.1 34.0 15.6 12.6 58.0- 1.3 1.0---- 0.0------------
1994-07-26 25.3 33.0 14.1 11.9 58.5- 1.0 1.3---- 0.0------------
1994-07-25 25.0 31.8 13.3 11.6 64.8- 1.3 0.7---- 0.0------------
1994-07-24 24.3 31.2 12.8 12.6 58.3- 1.7 0.7---- 0.0------------
1994-07-23 23.2 29.5 12.8 9.1 59.3- 2.3 1.7---- 0.0------------
1994-07-22 21.8 26.5 11.8 7.6 59.0- 1.3 2.0---- 0.0------------
1994-07-21 21.5 27.6 9.5 6.7 58.3- 0.3 1.3---- 0.0------------
1994-07-20 19.6 24.5 10.4 8.1 62.8- 0.3 1.3---- 0.0------------
1994-07-19 19.7 24.7 13.2 11.4 63.3- 2.3 4.0---- 0.0------------
1994-07-18 22.1 26.1 18.5 15.9 75.8- 3.7 1.0---- 1.0------------
1994-07-17 24.0 29.1 17.9 15.2 70.0- 5.3 1.0---- 0.0------------
1994-07-16 24.8 31.5 14.0 11.1 61.8- 1.3 1.3---- 0.0------------
1994-07-15 24.9 30.2 17.8 14.4 60.3- 0.7 2.0---- 0.0------------
1994-07-14 25.1 31.0 18.0 14.9 66.3- 3.3 1.3---- 0.0------------
1994-07-13 25.2 31.0 14.4 10.1 51.8- 2.3 2.3---- 0.0------------
1994-07-12 24.3 29.7 15.7 13.1 62.5- 1.3 1.3---- 0.0------------
1994-07-11 20.3 24.7 13.2 9.1 74.0- 5.0 1.7---- 0.0------------
1994-07-10 18.3 26.0 11.5 9.1 73.3- 6.0 2.3---- 0.6------------
1994-07-09 14.5 17.8 11.8 9.6 90.5- 7.3 0.7---- 0.0------------
1994-07-08 17.1 24.9 14.4 11.4 84.0- 5.3 1.7---- 6.2------------
1994-07-07 20.9 27.5 12.5 9.4 64.0- 3.0 1.0---- 0.8------------
1994-07-06 20.0 25.1 11.9 8.9 61.3- 1.3 0.7---- 0.0------------
1994-07-05 20.9 26.0 13.6 10.6 65.3- 1.0 1.3---- 0.0------------
1994-07-04 20.9 26.0 10.3 7.3 65.3- 0.7 0.7---- 0.0------------
1994-07-03 19.0 24.8 9.4 6.6 63.3- 0.3 1.0---- 0.0------------
1994-07-02 17.7 22.9 10.3 7.6 68.5- 0.0 0.7---- 0.0------------
1994-07-01 18.2 22.6 10.4 7.7 63.5- 3.0 1.7---- 0.0------------
1994-06-30 21.5 28.9 17.2 14.1 82.5- 5.0 1.0---- 2.5------------
1994-06-29 24.9 29.8 14.9 13.6 68.8- 0.0 0.3---- 0.0------------
1994-06-28 24.0 28.5 17.4 14.1 68.3- 0.0 1.3---- 0.0------------
1994-06-27 25.3 30.8 17.4 14.6 63.3- 1.0 1.0---- 0.0------------
1994-06-26 21.8 28.6 10.8 7.1 60.8- 0.0 1.7---- 0.0------------
1994-06-25 16.6 22.1 6.0 3.4 66.5- 0.7 1.0---- 0.0------------
1994-06-24 14.6 18.9 8.8 5.6 63.8- 2.3 3.7---- 0.0------------
1994-06-23 17.5 22.7 15.9 5.3 58.0- 3.7 5.7---- 0.0------------
1994-06-22 18.9 25.1 8.8 6.6 67.3- 4.3 1.7---- 0.0------------
1994-06-21 15.3 20.6 7.4 3.7 68.0- 2.3 0.0---- 0.0------------
1994-06-20 16.5 19.1 8.3 8.1 68.5- 4.0 2.0---- 0.0------------
1994-06-19 15.4 19.7 11.4 11.1 81.0- 8.0 2.0---- 0.8------------
1994-06-18 12.8 17.9 5.6 3.2 69.3- 4.7 1.7---- 4.6------------
1994-06-17 11.7 15.3 9.0 8.6 73.5- 4.0 2.0---- 0.4------------
1994-06-16 11.9 15.3 7.6 4.7 77.8- 4.7 1.7---- 1.4------------
321.2 ms

 

Źródłem pochodzenia danych jest Instytut Meteorologii i Gospodarki Wodnej – Państwowy Instytut Badawczy. Dane Instytutu Meteorologii i Gospodarki Wodnej – Państwowego Instytutu Badawczego zostały przetworzone.

Dane źródłowe można odnaleźć na stronie https://dane.imgw.pl